LEMR
43.25.83N 005.49.60W
IN73CK aprs.fi
zuletzt gehoert:
2022-08-13T18:00:03Z
zuerst gehoert:
2020-02-23T15:43:24Z

APRS Llanera [IN73CK], 2 Stunde(n), LEMR [20:21:34, 0s].
LEMR 43.25.83N 005.49.60WIN73CK 0.701km 331°NNW18:00:03ZAerodromo de la Morgal (123.500MHz): LEAS 131700Z 32004KT 260V030 9999 VCTS FEW005 FEW035CB 19/16 Q1013 TEMPO SHRA SCT035CB=
LEGM 43.26.15N 005.49.84WIN73CK 1.386km 332°NNW18:00:03ZHelipuerto de La Morgal (123.500MHz): LEAS 131700Z 32004KT 260V030 9999 VCTS FEW005 FEW035CB 19/16 Q1013 TEMPO SHRA SCT035CB=
EA1ABW 43.24.77N 005.47.77WIN73CJ 2.508km 122°ESE18:00:39ZMMDVM MMDVM HS Hat 439.8250/439.8250 CC1(3EA1ABW-2)
MMDVM MMDVM HS Hat 439.8250/439.8250 CC1(2EA1ABW-1)
EA1IPU 43.26.21N 005.46.62WIN73CK 3.922km 70°ENE18:01:03ZMMDVM MMDVM HS Hat 439.8000/439.8000 CC1(3EA1IPU-1)
LEHU 43.22.63N 005.49.57WIN73CJ 5.323km 183°S18:00:03ZHelipuerto del HUCA: LEAS 131700Z 32004KT 260V030 9999 VCTS FEW005 FEW035CB 19/16 Q1013 TEMPO SHRA SCT035CB=
ED1ZAU 43.23.04N 005.52.75WIN73BJ 6.457km 225°SW18:02:19ZRD625 438.5000/430.9000 CC1
EA1FOI 43.21.64N 005.49.38WIN73CI 7.130km 180°S18:11:20ZDavid(3EA1FOI-12)
EB1JAJ 43.21.72N 005.51.82WIN73BI 7.745km 205°SSW18:02:04ZMMDVM MMDVM HS Dual Hat 438.0250/431.0250 CC1(3EB1JAJ-2)
EA1L 43.20.37N 005.51.13WIN73BI 9.778km 194°SSW18:20:05Zea1l@ure.es V=13.4V
Wind 026°/003kn, Böen bis 007kn, Temp 21.11c, Regen 0.0mm, letzte 24h 0.0mm, seit 0h 0.0mm, Baro 1010.9h, Hum: 82%(2EA1L-13)
EA1HWX 43.19.28N 005.50.98WIN73BH 11.726km 191°S18:02:02ZDMO - UHF 439.7250/431.0000 CC11(3EA1HWX-2)
MMDVM DMO 222.3400/222.3400 CC1(2EA1HWX-10)
ED1ZAY 43.29.47N 005.56.54WIN73AL 12.164km 307°NW18:02:18ZRD625 438.3000/430.7000 CC1
ED1ZAE 43.27.99N 005.40.54WIN73DL 12.720km 69°ENE18:14:25Z400 M. PICO SAN MARTIN (GIJON) 13.4V,22.6C(3ED1ZAE-3)
ED1ZAS 43.27.52N 005.40.17WIN73DL 12.912km 73°ENE18:02:21ZRD985 438.2250/430.6250 CC1
EA1AHA 43.32.72N 005.54.38WIN73BN 15.004km 333°NNW18:02:26ZWind 000°/000kn, Böen bis 000kn, Temp 20.56c, Regen 0.3mm, letzte 24h 1.0mm, seit 0h 1.0mm, Baro 1014.4h, Hum: 78%(3EA1AHA-13)
EB1TK 43.32.22N 005.42.32WIN73DM 15.659km 37°NE18:20:17ZWind 282°/002kn, Böen bis 004kn, Temp 19.44c, Regen 0.0mm, letzte 24h 1.8mm, seit 0h 1.8mm, Baro 1015.5h, Hum: 89%(3EB1TK-13)
EA1FFA 43.31.53N 005.40.64WIN73DM 16.212km 46°NE18:01:42ZMMDVM MMDVM HS Hat 438.8000/438.8000 CC1(3EA1FFA-1)
EA1DZR 43.31.48N 005.40.00WIN73EM 16.771km 49°NE18:02:13ZMMDVM MMDVM HS Hat 432.1000/432.1000 CC2(3EA1DZR-2)
MMDVM DVMega 431.1000/431.1000 CC1(2EA1DZR-1)
MMDVM DV ADER 434.3500/434.3500 CC1(2EA1DZR-4)
EA1IEJ 43.31.81N 005.40.17WIN73DM 17.027km 46°NE18:02:02ZMMDVM DMO 222.3400/222.3400 CC1(3EA1IEJ-11)
MMDVM MMDVM HS Hat 438.8500/438.8500 CC6(2EA1IEJ-1)
LEEL 43.32.98N 005.41.71WIN73DN 17.254km 36°NE18:00:03ZHelipuerto de El Musel: LEAS 131700Z 32004KT 260V030 9999 VCTS FEW005 FEW035CB 19/16 Q1013 TEMPO SHRA SCT035CB=
EB1GEM 43.30.00N 005.36.07WIN73EM 19.733km 65°ENE18:10:38ZWX3in1Plus2.0 U=13.3V,T=??.?C/??.?F(3EB1GEM-3)
EA1IMW 43.14.36N 005.46.93WIN73CF 20.897km 171°S18:01:58ZGRUPO RADIO GALENA (GRG) 430.4500/430.4500 CC1(3EA1IMW-1)
EC1AIJ 43.19.77N 005.33.49WIN73FH 23.864km 116°ESE18:00:32ZMMDVM MMDVM HS Hat 432.9800/432.9800 CC1
EB1DGC 43.12.60N 005.45.59WIN73CF 24.431km 168°SSE18:00:16ZMMDVM MMDVM HS Hat 433.4500/433.4500 CC1
EA1AQK 43.16.49N 005.35.99WIN73EG 24.537km 133°SE18:00:29ZMMDVM MMDVM HS Hat 439.8500/439.8500 CC1(3EA1AQK-1)
EA1JBL 43.12.28N 005.47.42WIN73CE 24.612km 174°S18:01:51ZMMDVM DVMega 435.3000/435.3000 CC1
EA1HWA 43.12.00N 005.47.40WIN73CE 25.150km 174°S18:00:31ZMMDVM MMDVM HS Hat 433.4500/433.4500 CC1
EA1HJA 43.28.10N 005.30.45WIN73FL 25.892km 79°E18:10:37ZEA1HJA@URE.ES
IN73FL WX3IN1+ 2.0 - V=13.2V,TX TEMP=37.5C(2EA1HJA-2)
EA1RCG 43.09.45N 005.49.78WIN73CD 29.723km 181°S18:00:59ZGRUPO RADIO GALENA (GRG) 430.4500/430.4500 CC1(3EA1RCG-3)
EB1WB 43.33.88N 006.08.88WIN63WN 30.503km 301°WNW18:07:23Z]=(3EB1WB-9)
EA1JAY 43.29.33N 005.26.78WIN73GL 31.194km 77°ENE17:30:05Z434.525MHz Nodo TETRA DMO(3EA1JAY-4)
EA1JAY(2EA1JAY-2)
EA1FHR 43.28.72N 005.26.41WIN73GL 31.430km 79°E18:00:33ZMMDVM MMDVM HS Hat 439.1500/439.1500 CC1
EA1HWD 43.28.96N 005.26.30WIN73GL 31.675km 78°ENE18:01:06ZMMDVM MMDVM HS Hat 434.2500/434.2500 CC1
ED1ZAD 43.07.90N 005.38.52WIN73ED 35.715km 156°SSE18:16:34ZED1ZAD-3 APRS Digi/Igate(3ED1ZAD-3)
EC1KV 43.34.01N 006.16.01WIN63UN 39.141km 294°WNW18:17:40Z VOLT.=13.7 V - TEMP.=??.? C(3EC1KV-1)
EA1JBU 43.30.80N 005.16.20WIN73IM 45.649km 77°ENE18:15:04ZEA1JBU(3EA1JBU-2)
LETN 43.20.05N 006.22.69WIN63TI 46.022km 258°WSW18:00:03ZAerodromo de La Curiscada (Tineo): LEAS 131700Z 32004KT 260V030 9999 VCTS FEW005 FEW035CB 19/16 Q1013 TEMPO SHRA SCT035CB=

aprs.pl 5.0.011w DL3EL © 2006-2021 [4353936]